Time,TemperatureF,DewpointF,PressureIn,WindDirection,WindDirectionDegrees,WindSpeedMPH,WindSpeedGustMPH,Humidity,HourlyPrecipIn,Conditions,Clouds,dailyrainin,SoftwareType,DateUTC
2013-06-02 00:10:00,66.6,49.0,29.98,ENE,73,2.0,5.0,54,0.00,,,0.00,weatherlink.com 1.10,2013-06-02 06:10:00,
2013-06-02 00:25:00,66.0,50.0,29.98,ENE,72,2.0,3.0,56,0.00,,,0.00,weatherlink.com 1.10,2013-06-02 06:25:00,
2013-06-02 00:40:00,66.2,50.0,29.98,ENE,72,0.0,4.0,57,0.00,,,0.00,weatherlink.com 1.10,2013-06-02 06:40:00,
2013-06-02 00:55:00,66.1,50.0,29.98,ENE,72,0.0,3.0,57,0.00,,,0.00,weatherlink.com 1.10,2013-06-02 06:55:00,
2013-06-02 01:10:00,65.7,50.0,29.98,ENE,72,0.0,2.0,58,0.00,,,0.00,weatherlink.com 1.10,2013-06-02 07:10:00,
2013-06-02 01:25:00,64.9,51.0,29.99,ENE,73,0.0,1.0,60,0.00,,,0.00,weatherlink.com 1.10,2013-06-02 07:25:00,
2013-06-02 01:40:00,63.9,50.0,29.99,ENE,73,0.0,0.0,60,0.00,,,0.00,weatherlink.com 1.10,2013-06-02 07:40:00,
2013-06-02 01:55:00,62.9,50.0,30.00,ENE,72,0.0,0.0,62,0.00,,,0.00,weatherlink.com 1.10,2013-06-02 07:55:00,
2013-06-02 02:10:00,62.3,49.0,30.00,ENE,72,0.0,0.0,63,0.00,,,0.00,weatherlink.com 1.10,2013-06-02 08:10:00,
2013-06-02 02:25:00,61.5,49.0,30.00,ENE,72,0.0,0.0,63,0.00,,,0.00,weatherlink.com 1.10,2013-06-02 08:25:00,
2013-06-02 02:40:00,60.6,48.0,30.01,ENE,72,0.0,0.0,64,0.00,,,0.00,weatherlink.com 1.10,2013-06-02 08:40:00,
2013-06-02 02:55:00,60.0,49.0,30.01,ENE,72,0.0,4.0,66,0.00,,,0.00,weatherlink.com 1.10,2013-06-02 08:55:00,
2013-06-02 03:10:00,60.3,49.0,30.02,ENE,73,3.0,5.0,67,0.00,,,0.00,weatherlink.com 1.10,2013-06-02 09:10:00,
2013-06-02 03:25:00,60.3,50.0,30.02,ENE,71,4.0,8.0,68,0.00,,,0.00,weatherlink.com 1.10,2013-06-02 09:25:00,
2013-06-02 03:40:00,60.9,50.0,30.03,ENE,70,4.0,7.0,68,0.00,,,0.00,weatherlink.com 1.10,2013-06-02 09:40:00,
2013-06-02 03:55:00,60.7,50.0,30.04,ENE,68,1.0,7.0,68,0.00,,,0.00,weatherlink.com 1.10,2013-06-02 09:55:00,
2013-06-02 04:10:00,60.4,50.0,30.04,ENE,68,1.0,4.0,69,0.00,,,0.00,weatherlink.com 1.10,2013-06-02 10:10:00,
2013-06-02 04:25:00,60.3,50.0,30.05,ENE,68,0.0,3.0,70,0.00,,,0.00,weatherlink.com 1.10,2013-06-02 10:25:00,
2013-06-02 04:41:00,59.8,50.0,30.06,ENE,67,0.0,2.0,71,0.00,,,0.00,weatherlink.com 1.10,2013-06-02 10:41:00,
2013-06-02 04:56:00,59.3,50.0,30.06,ENE,67,2.0,3.0,72,0.00,,,0.00,weatherlink.com 1.10,2013-06-02 10:56:00,
2013-06-02 05:11:00,59.3,51.0,30.06,ENE,68,1.0,5.0,73,0.00,,,0.00,weatherlink.com 1.10,2013-06-02 11:11:00,
2013-06-02 05:26:00,59.4,51.0,30.06,ENE,64,1.0,8.0,73,0.00,,,0.00,weatherlink.com 1.10,2013-06-02 11:26:00,
2013-06-02 05:41:00,59.7,51.0,30.06,NE,38,9.0,11.0,73,0.00,,,0.00,weatherlink.com 1.10,2013-06-02 11:41:00,
2013-06-02 05:56:00,60.0,51.0,30.06,NE,45,1.0,9.0,73,0.00,,,0.00,weatherlink.com 1.10,2013-06-02 11:56:00,
2013-06-02 06:11:00,60.3,51.0,30.07,ENE,58,7.0,10.0,72,0.00,,,0.00,weatherlink.com 1.10,2013-06-02 12:11:00,
2013-06-02 06:26:00,60.9,51.0,30.07,NE,49,0.0,5.0,71,0.00,,,0.00,weatherlink.com 1.10,2013-06-02 12:26:00,
2013-06-02 06:41:00,62.1,52.0,30.07,ENE,64,0.0,9.0,70,0.00,,,0.00,weatherlink.com 1.10,2013-06-02 12:41:00,
2013-06-02 06:56:00,63.2,52.0,30.08,NE,50,0.0,10.0,68,0.00,,,0.00,weatherlink.com 1.10,2013-06-02 12:56:00,
2013-06-02 07:11:00,64.0,52.0,30.07,ENE,67,7.0,13.0,65,0.00,,,0.00,weatherlink.com 1.10,2013-06-02 13:11:00,
2013-06-02 07:26:00,64.8,51.0,30.09,ENE,68,7.0,14.0,62,0.00,,,0.00,weatherlink.com 1.10,2013-06-02 13:26:00,
2013-06-02 07:41:00,65.5,50.0,30.09,ENE,73,5.0,15.0,58,0.00,,,0.00,weatherlink.com 1.10,2013-06-02 13:41:00,
2013-06-02 07:56:00,66.4,50.0,30.09,East,95,6.0,12.0,56,0.00,,,0.00,weatherlink.com 1.10,2013-06-02 13:56:00,
2013-06-02 08:11:00,67.4,50.0,30.09,ENE,69,2.0,11.0,54,0.00,,,0.00,weatherlink.com 1.10,2013-06-02 14:11:00,
2013-06-02 08:26:00,67.7,50.0,30.09,ENE,77,0.0,15.0,53,0.00,,,0.00,weatherlink.com 1.10,2013-06-02 14:26:00,
2013-06-02 08:41:00,68.4,49.0,30.10,ENE,74,5.0,10.0,50,0.00,,,0.00,weatherlink.com 1.10,2013-06-02 14:41:00,
2013-06-02 08:56:00,69.0,49.0,30.09,East,94,9.0,13.0,49,0.00,,,0.00,weatherlink.com 1.10,2013-06-02 14:56:00,
2013-06-02 09:11:00,70.3,49.0,30.09,NE,50,3.0,9.0,47,0.00,,,0.00,weatherlink.com 1.10,2013-06-02 15:11:00,
2013-06-02 09:26:00,71.2,49.0,30.09,East,81,0.0,11.0,46,0.00,,,0.00,weatherlink.com 1.10,2013-06-02 15:26:00,
2013-06-02 09:41:00,71.7,49.0,30.09,ENE,75,5.0,11.0,45,0.00,,,0.00,weatherlink.com 1.10,2013-06-02 15:41:00,
2013-06-02 09:56:00,72.2,49.0,30.09,ENE,64,0.0,8.0,44,0.00,,,0.00,weatherlink.com 1.10,2013-06-02 15:56:00,
2013-06-02 10:11:00,72.7,49.0,30.08,East,89,6.0,9.0,44,0.00,,,0.00,weatherlink.com 1.10,2013-06-02 16:11:00,
2013-06-02 10:26:00,73.5,49.0,30.09,East,95,0.0,10.0,42,0.00,,,0.00,weatherlink.com 1.10,2013-06-02 16:26:00,
2013-06-02 10:41:00,73.9,49.0,30.08,NE,53,5.0,7.0,41,0.00,,,0.00,weatherlink.com 1.10,2013-06-02 16:41:00,
2013-06-02 10:56:00,74.1,48.0,30.08,SE,139,3.0,10.0,40,0.00,,,0.00,weatherlink.com 1.10,2013-06-02 16:56:00,
2013-06-02 11:11:00,75.9,49.0,30.07,SE,140,4.0,10.0,39,0.00,,,0.00,weatherlink.com 1.10,2013-06-02 17:11:00,
2013-06-02 11:26:00,75.8,48.0,30.07,SE,143,0.0,9.0,38,0.00,,,0.00,weatherlink.com 1.10,2013-06-02 17:26:00,
2013-06-02 11:41:00,76.3,48.0,30.06,ESE,120,5.0,10.0,37,0.00,,,0.00,weatherlink.com 1.10,2013-06-02 17:41:00,
2013-06-02 11:56:00,77.1,49.0,30.06,SE,143,2.0,9.0,37,0.00,,,0.00,weatherlink.com 1.10,2013-06-02 17:56:00,
2013-06-02 12:11:00,77.9,49.0,30.06,SE,135,1.0,5.0,36,0.00,,,0.00,weatherlink.com 1.10,2013-06-02 18:11:00,
2013-06-02 12:26:00,78.4,48.0,30.05,SE,129,0.0,8.0,34,0.00,,,0.00,weatherlink.com 1.10,2013-06-02 18:26:00,
2013-06-02 12:41:00,78.7,48.0,30.04,ENE,70,8.0,12.0,34,0.00,,,0.00,weatherlink.com 1.10,2013-06-02 18:41:00,
2013-06-02 12:56:00,79.1,48.0,30.03,ESE,114,1.0,9.0,33,0.00,,,0.00,weatherlink.com 1.10,2013-06-02 18:56:00,
2013-06-02 13:11:00,80.0,48.0,30.02,ENE,58,1.0,5.0,32,0.00,,,0.00,weatherlink.com 1.10,2013-06-02 19:11:00,
2013-06-02 13:26:00,79.8,47.0,30.01,SSE,151,0.0,9.0,32,0.00,,,0.00,weatherlink.com 1.10,2013-06-02 19:26:00,
2013-06-02 13:41:00,80.6,47.0,30.00,SSE,154,0.0,4.0,31,0.00,,,0.00,weatherlink.com 1.10,2013-06-02 19:41:00,
2013-06-02 13:56:00,81.1,47.0,30.00,SE,125,0.0,8.0,30,0.00,,,0.00,weatherlink.com 1.10,2013-06-02 19:56:00,
2013-06-02 14:11:00,80.9,47.0,29.99,ENE,62,0.0,9.0,30,0.00,,,0.00,weatherlink.com 1.10,2013-06-02 20:11:00,
2013-06-02 14:27:00,81.1,45.0,29.98,NW,323,0.0,6.0,28,0.00,,,0.00,weatherlink.com 1.10,2013-06-02 20:27:00,
2013-06-02 14:42:00,82.6,46.0,29.97,ENE,63,0.0,7.0,28,0.00,,,0.00,weatherlink.com 1.10,2013-06-02 20:42:00,
2013-06-02 14:57:00,83.4,47.0,29.96,South,176,2.0,5.0,28,0.00,,,0.00,weatherlink.com 1.10,2013-06-02 20:57:00,
2013-06-02 15:12:00,82.8,46.0,29.96,SE,144,0.0,8.0,27,0.00,,,0.00,weatherlink.com 1.10,2013-06-02 21:12:00,
2013-06-02 15:27:00,83.0,46.0,29.95,SSW,193,0.0,3.0,27,0.00,,,0.00,weatherlink.com 1.10,2013-06-02 21:27:00,
2013-06-02 15:42:00,83.7,45.0,29.94,SW,218,4.0,7.0,26,0.00,,,0.00,weatherlink.com 1.10,2013-06-02 21:42:00,
2013-06-02 15:57:00,84.2,46.0,29.93,East,97,0.0,10.0,26,0.00,,,0.00,weatherlink.com 1.10,2013-06-02 21:57:00,
2013-06-02 16:12:00,84.1,46.0,29.93,East,83,7.0,8.0,26,0.00,,,0.00,weatherlink.com 1.10,2013-06-02 22:12:00,
2013-06-02 16:27:00,84.4,46.0,29.92,East,92,5.0,10.0,26,0.00,,,0.00,weatherlink.com 1.10,2013-06-02 22:27:00,
2013-06-02 16:42:00,84.6,45.0,29.91,SE,135,0.0,10.0,25,0.00,,,0.00,weatherlink.com 1.10,2013-06-02 22:42:00,
2013-06-02 16:57:00,84.8,45.0,29.91,SE,137,3.0,10.0,25,0.00,,,0.00,weatherlink.com 1.10,2013-06-02 22:57:00,
2013-06-02 17:12:00,84.8,45.0,29.91,ESE,122,0.0,9.0,25,0.00,,,0.00,weatherlink.com 1.10,2013-06-02 23:12:00,
2013-06-02 17:27:00,84.7,46.0,29.90,South,170,4.0,9.0,26,0.00,,,0.00,weatherlink.com 1.10,2013-06-02 23:27:00,
2013-06-02 17:42:00,84.4,46.0,29.90,South,184,3.0,9.0,26,0.00,,,0.00,weatherlink.com 1.10,2013-06-02 23:42:00,
2013-06-02 17:57:00,84.4,45.0,29.89,SSE,160,2.0,7.0,25,0.00,,,0.00,weatherlink.com 1.10,2013-06-02 23:57:00,
2013-06-02 18:12:00,83.9,45.0,29.89,South,170,2.0,7.0,26,0.00,,,0.00,weatherlink.com 1.10,2013-06-03 00:12:00,
2013-06-02 18:27:00,83.4,45.0,29.89,SE,145,2.0,8.0,26,0.00,,,0.00,weatherlink.com 1.10,2013-06-03 00:27:00,
2013-06-02 18:42:00,83.4,45.0,29.88,SE,144,5.0,8.0,26,0.00,,,0.00,weatherlink.com 1.10,2013-06-03 00:42:00,
2013-06-02 18:57:00,83.1,46.0,29.88,SE,129,4.0,10.0,27,0.00,,,0.00,weatherlink.com 1.10,2013-06-03 00:57:00,
2013-06-02 19:12:00,82.5,45.0,29.88,SE,137,0.0,6.0,27,0.00,,,0.00,weatherlink.com 1.10,2013-06-03 01:12:00,
2013-06-02 19:27:00,81.6,45.0,29.88,SE,137,0.0,4.0,28,0.00,,,0.00,weatherlink.com 1.10,2013-06-03 01:27:00,
2013-06-02 19:42:00,80.4,46.0,29.88,SE,137,0.0,2.0,30,0.00,,,0.00,weatherlink.com 1.10,2013-06-03 01:42:00,
2013-06-02 19:57:00,79.2,46.0,29.88,SE,128,4.0,4.0,31,0.00,,,0.00,weatherlink.com 1.10,2013-06-03 01:57:00,
2013-06-02 20:12:00,77.5,45.0,29.88,ESE,112,0.0,4.0,32,0.00,,,0.00,weatherlink.com 1.10,2013-06-03 02:12:00,
2013-06-02 20:27:00,76.5,45.0,29.88,East,95,3.0,7.0,33,0.00,,,0.00,weatherlink.com 1.10,2013-06-03 02:27:00,
2013-06-02 20:42:00,75.5,46.0,29.89,East,90,0.0,8.0,35,0.00,,,0.00,weatherlink.com 1.10,2013-06-03 02:42:00,
2013-06-02 20:57:00,74.9,47.0,29.89,East,89,0.0,8.0,37,0.00,,,0.00,weatherlink.com 1.10,2013-06-03 02:57:00,
2013-06-02 21:12:00,74.3,48.0,29.90,ESE,106,5.0,10.0,39,0.00,,,0.00,weatherlink.com 1.10,2013-06-03 03:12:00,
2013-06-02 21:27:00,73.6,48.0,29.90,East,101,4.0,9.0,41,0.00,,,0.00,weatherlink.com 1.10,2013-06-03 03:27:00,
2013-06-02 21:42:00,73.1,48.0,29.91,ESE,112,2.0,9.0,41,0.00,,,0.00,weatherlink.com 1.10,2013-06-03 03:42:00,
2013-06-02 21:57:00,72.5,48.0,29.93,East,100,1.0,10.0,42,0.00,,,0.00,weatherlink.com 1.10,2013-06-03 03:57:00,
2013-06-02 22:12:00,72.0,48.0,29.93,ESE,114,3.0,13.0,43,0.00,,,0.00,weatherlink.com 1.10,2013-06-03 04:12:00,
2013-06-02 22:27:00,71.5,48.0,29.93,East,97,5.0,15.0,44,0.00,,,0.00,weatherlink.com 1.10,2013-06-03 04:27:00,
2013-06-02 22:42:00,71.1,49.0,29.93,ESE,106,12.0,17.0,45,0.00,,,0.00,weatherlink.com 1.10,2013-06-03 04:42:00,
2013-06-02 22:57:00,70.4,49.0,29.93,SE,127,2.0,9.0,46,0.00,,,0.00,weatherlink.com 1.10,2013-06-03 04:57:00,
2013-06-02 23:12:00,70.0,49.0,29.93,ESE,110,1.0,9.0,47,0.00,,,0.00,weatherlink.com 1.10,2013-06-03 05:12:00,
2013-06-02 23:27:00,69.5,49.0,29.93,ESE,118,4.0,9.0,48,0.00,,,0.00,weatherlink.com 1.10,2013-06-03 05:27:00,
2013-06-02 23:42:00,69.2,49.0,29.94,ESE,106,0.0,9.0,49,0.00,,,0.00,weatherlink.com 1.10,2013-06-03 05:42:00,
2013-06-02 23:57:00,68.7,49.0,29.93,ESE,112,0.0,8.0,50,0.00,,,0.00,weatherlink.com 1.10,2013-06-03 05:57:00,